createdAt,value
2023-01-30T00:00:00.707Z,76.99
2023-01-30T00:02:31.621Z,77.54
2023-01-30T00:05:02.185Z,77.53
2023-01-30T00:07:32.721Z,77.32
2023-01-30T00:10:04.403Z,77.31
2023-01-30T00:12:35.319Z,76.98
2023-01-30T00:15:06.878Z,77.24
2023-01-30T00:17:40.270Z,76.91
2023-01-30T00:20:15.892Z,77.13
2023-01-30T00:23:00.469Z,77.19
2023-01-30T00:25:23.696Z,77.31
2023-01-30T00:27:54.522Z,77.11
2023-01-30T00:30:28.116Z,77.06
2023-01-30T00:32:59.754Z,77.40
2023-01-30T00:35:30.588Z,77.13
2023-01-30T00:38:02.827Z,76.94
2023-01-30T00:40:34.071Z,76.87
2023-01-30T00:43:31.682Z,77.30
2023-01-30T00:46:22.197Z,77.32
2023-01-30T00:48:54.594Z,77.01
2023-01-30T00:51:26.537Z,76.86
2023-01-30T00:54:00.080Z,77.04
2023-01-30T00:56:31.279Z,76.69
2023-01-30T00:59:05.547Z,76.83
2023-01-30T01:01:37.709Z,77.23
2023-01-30T01:04:11.462Z,77.21
2023-01-30T01:06:43.523Z,76.87
2023-01-30T01:09:16.390Z,77.01
2023-01-30T01:11:47.887Z,77.27
2023-01-30T01:14:20.380Z,77.12
2023-01-30T01:16:51.353Z,77.12
2023-01-30T01:19:23.164Z,77.09
2023-01-30T01:21:56.762Z,77.15
2023-01-30T01:24:29.966Z,77.05
2023-01-30T01:27:01.960Z,77.28
2023-01-30T01:29:33.753Z,77.23
2023-01-30T01:32:08.504Z,77.58
2023-01-30T01:34:40.347Z,77.68
2023-01-30T01:37:12.578Z,77.43
2023-01-30T01:40:02.106Z,77.52
2023-01-30T01:42:35.902Z,77.38
2023-01-30T01:45:19.391Z,77.44
2023-01-30T01:48:17.858Z,77.29
2023-01-30T01:51:01.668Z,77.35
2023-01-30T01:53:36.243Z,77.55
2023-01-30T01:56:08.709Z,77.51
2023-01-30T01:58:47.568Z,77.48
2023-01-30T02:01:19.968Z,78.25
2023-01-30T02:03:56.279Z,79.13
2023-01-30T02:06:28.295Z,79.70
2023-01-30T02:09:06.905Z,80.24
2023-01-30T02:11:52.724Z,81.36
2023-01-30T02:14:25.691Z,82.01
2023-01-30T02:17:00.692Z,82.60
2023-01-30T02:19:53.825Z,82.78
2023-01-30T02:22:33.193Z,82.76
2023-01-30T02:25:19.502Z,82.40
2023-01-30T02:28:27.262Z,82.61
2023-01-30T02:31:17.021Z,82.67
2023-01-30T02:34:09.587Z,82.54
2023-01-30T02:37:01.486Z,82.41
2023-01-30T02:40:11.476Z,82.60
2023-01-30T02:42:55.045Z,83.46
2023-01-30T02:45:41.320Z,84.67
2023-01-30T02:48:18.050Z,85.39
2023-01-30T02:51:02.240Z,85.51
2023-01-30T02:53:36.822Z,85.91
2023-01-30T02:56:08.172Z,85.46
2023-01-30T02:58:44.715Z,85.57
2023-01-30T03:01:38.585Z,85.47
2023-01-30T03:04:24.960Z,85.37
2023-01-30T03:07:03.170Z,85.20
2023-01-30T03:09:39.747Z,85.09
2023-01-30T03:12:26.015Z,84.59
2023-01-30T03:15:08.753Z,84.47
2023-01-30T03:17:43.513Z,84.12
2023-01-30T03:20:18.383Z,84.10
2023-01-30T03:22:50.204Z,83.89
2023-01-30T03:25:26.724Z,83.82
2023-01-30T03:27:59.421Z,83.66
2023-01-30T03:30:34.887Z,83.48
2023-01-30T03:33:06.447Z,83.54
2023-01-30T03:35:38.064Z,83.56
2023-01-30T03:38:08.592Z,83.11
2023-01-30T03:40:41.771Z,83.47
2023-01-30T03:43:12.532Z,83.28
2023-01-30T03:45:44.291Z,83.60
2023-01-30T03:48:14.797Z,84.03
2023-01-30T03:50:47.464Z,84.00
2023-01-30T03:53:17.928Z,84.25
2023-01-30T03:55:55.627Z,84.65
2023-01-30T03:58:27.038Z,84.44
2023-01-30T04:00:58.448Z,84.28
2023-01-30T04:03:29.014Z,84.24
2023-01-30T04:06:01.119Z,84.14
2023-01-30T04:08:31.706Z,84.01
2023-01-30T04:11:02.375Z,83.95
2023-01-30T04:13:33.586Z,83.68
2023-01-30T04:16:23.831Z,83.77
2023-01-30T04:18:54.404Z,83.55
2023-01-30T04:21:25.747Z,83.35
2023-01-30T04:23:57.741Z,83.17
2023-01-30T04:26:28.353Z,82.96
2023-01-30T04:29:01.158Z,82.92
2023-01-30T04:31:31.801Z,82.48
2023-01-30T04:34:05.912Z,82.16
2023-01-30T04:36:39.935Z,82.07
2023-01-30T04:39:11.802Z,81.97
2023-01-30T04:41:44.069Z,82.24
2023-01-30T04:44:17.643Z,82.19
2023-01-30T04:46:48.185Z,82.57
2023-01-30T04:49:19.843Z,83.51
2023-01-30T04:51:52.183Z,83.31
2023-01-30T04:54:22.901Z,83.87
2023-01-30T04:56:53.669Z,84.21
2023-01-30T04:59:26.091Z,84.57
2023-01-30T05:01:58.036Z,85.20
2023-01-30T05:04:29.783Z,85.28
2023-01-30T05:07:02.987Z,85.95
2023-01-30T05:09:35.086Z,86.15
2023-01-30T05:12:08.204Z,86.87
2023-01-30T05:14:41.418Z,87.09
2023-01-30T05:17:13.765Z,87.34
2023-01-30T05:19:47.267Z,87.63
2023-01-30T05:22:18.820Z,87.66
2023-01-30T05:24:56.227Z,87.89
2023-01-30T05:27:26.833Z,88.09
2023-01-30T05:30:00.372Z,87.80
2023-01-30T05:32:32.580Z,88.02
2023-01-30T05:35:05.244Z,87.83
2023-01-30T05:37:37.326Z,87.94
2023-01-30T05:40:10.311Z,88.06
2023-01-30T05:42:42.123Z,88.13
2023-01-30T05:45:14.584Z,88.00
2023-01-30T05:47:45.941Z,88.28
2023-01-30T05:50:18.225Z,88.31
2023-01-30T05:52:49.919Z,88.21
2023-01-30T05:55:20.813Z,88.19
2023-01-30T05:57:51.492Z,88.25
2023-01-30T06:00:25.278Z,88.37
2023-01-30T06:02:58.618Z,88.48
2023-01-30T06:05:32.306Z,88.46
2023-01-30T06:08:03.019Z,88.36
2023-01-30T06:10:38.255Z,88.41
2023-01-30T06:13:11.220Z,88.49
2023-01-30T06:15:44.173Z,88.23
2023-01-30T06:18:15.543Z,88.57
2023-01-30T06:20:55.643Z,88.52
2023-01-30T06:23:28.138Z,88.25
2023-01-30T06:26:05.872Z,88.37
2023-01-30T06:28:35.853Z,88.23
2023-01-30T06:31:09.802Z,88.01
2023-01-30T06:33:41.962Z,87.98
2023-01-30T06:36:25.652Z,87.97
2023-01-30T06:38:46.975Z,87.99
2023-01-30T06:41:19.904Z,87.98
2023-01-30T06:43:52.063Z,87.96
2023-01-30T06:46:24.542Z,87.87
2023-01-30T06:48:57.944Z,87.82
2023-01-30T06:51:28.663Z,87.68
2023-01-30T06:53:59.430Z,87.50
2023-01-30T06:56:31.772Z,87.52
2023-01-30T06:59:03.739Z,87.38
2023-01-30T07:01:34.238Z,87.46
2023-01-30T07:04:07.681Z,87.53
2023-01-30T07:06:40.787Z,87.68
2023-01-30T07:09:13.183Z,87.78
2023-01-30T07:11:47.601Z,87.94
2023-01-30T07:14:18.191Z,88.01
2023-01-30T07:16:49.129Z,87.98
2023-01-30T07:19:21.134Z,88.13
2023-01-30T07:21:52.691Z,88.02
2023-01-30T07:24:24.496Z,88.22
2023-01-30T07:26:56.860Z,88.39
2023-01-30T07:29:27.854Z,88.36
2023-01-30T07:32:00.553Z,88.22
2023-01-30T07:34:36.269Z,88.01
2023-01-30T07:37:08.515Z,87.88
2023-01-30T07:39:40.122Z,87.89
2023-01-30T07:42:11.762Z,88.01
2023-01-30T07:44:46.940Z,88.01
2023-01-30T07:47:19.251Z,88.17
2023-01-30T07:49:51.360Z,88.26
2023-01-30T07:52:22.283Z,88.40
2023-01-30T07:54:54.478Z,88.52
2023-01-30T07:57:26.541Z,88.52
2023-01-30T07:59:57.938Z,88.56
2023-01-30T08:02:29.337Z,88.67
2023-01-30T08:05:00.321Z,88.79
2023-01-30T08:07:31.506Z,88.61
2023-01-30T08:10:02.018Z,88.67
2023-01-30T08:12:32.893Z,88.88
2023-01-30T08:15:06.246Z,88.84
2023-01-30T08:17:37.722Z,88.85
2023-01-30T08:20:13.108Z,89.02
2023-01-30T08:22:44.566Z,89.18
2023-01-30T08:25:17.616Z,89.20
2023-01-30T08:27:49.077Z,89.01
2023-01-30T08:30:24.125Z,88.88
2023-01-30T08:32:58.343Z,88.83
2023-01-30T08:35:30.350Z,88.75
2023-01-30T08:38:03.579Z,88.70
2023-01-30T08:40:35.211Z,88.50
2023-01-30T08:43:06.161Z,88.70
2023-01-30T08:45:38.040Z,88.52
2023-01-30T08:48:10.695Z,88.45
2023-01-30T08:50:42.394Z,88.31
2023-01-30T08:53:13.087Z,87.98
2023-01-30T08:55:47.662Z,88.23
2023-01-30T08:58:18.387Z,87.94
2023-01-30T09:00:50.445Z,88.02
2023-01-30T09:03:21.255Z,87.50
2023-01-30T09:05:58.264Z,87.61
2023-01-30T09:08:29.266Z,87.35
2023-01-30T09:11:02.354Z,87.09
2023-01-30T09:13:38.326Z,87.17
2023-01-30T09:16:09.040Z,87.32
2023-01-30T09:18:41.606Z,87.15
2023-01-30T09:21:13.819Z,87.09
2023-01-30T09:23:44.534Z,86.81
2023-01-30T09:26:17.570Z,87.04
2023-01-30T09:28:48.637Z,86.64
2023-01-30T09:31:19.554Z,86.39
2023-01-30T09:33:51.801Z,86.40
2023-01-30T09:36:22.709Z,86.07
2023-01-30T09:38:54.952Z,86.15
2023-01-30T09:41:40.463Z,86.41
2023-01-30T09:44:14.117Z,86.29
2023-01-30T09:47:03.462Z,85.55
2023-01-30T09:49:48.942Z,85.29
2023-01-30T09:52:25.361Z,85.19
2023-01-30T09:54:59.032Z,84.90
2023-01-30T09:57:30.137Z,84.44
2023-01-30T10:00:10.124Z,84.11
2023-01-30T10:02:43.790Z,84.26
2023-01-30T10:05:17.536Z,84.18
2023-01-30T10:08:08.209Z,83.67
2023-01-30T10:11:10.094Z,82.93
2023-01-30T10:13:48.755Z,82.73
2023-01-30T10:16:28.211Z,82.64
2023-01-30T10:19:36.487Z,81.98
2023-01-30T10:22:10.456Z,81.15
2023-01-30T10:24:57.286Z,80.17
2023-01-30T10:27:31.491Z,79.73
2023-01-30T10:30:05.151Z,80.13
2023-01-30T10:32:41.817Z,79.49
2023-01-30T10:35:19.695Z,78.49
2023-01-30T10:38:01.944Z,78.90
2023-01-30T10:40:48.921Z,77.90
2023-01-30T10:43:31.824Z,74.72
2023-01-30T10:46:20.425Z,75.78
2023-01-30T10:49:10.690Z,76.33
2023-01-30T10:51:59.542Z,76.20
2023-01-30T10:54:39.237Z,76.10
2023-01-30T10:57:21.669Z,76.73
2023-01-30T10:59:59.718Z,76.90
2023-01-30T11:02:38.501Z,76.36
2023-01-30T11:05:22.119Z,76.35
2023-01-30T11:07:52.978Z,76.31
2023-01-30T11:10:28.091Z,76.51
2023-01-30T11:13:02.936Z,75.89
2023-01-30T11:15:44.767Z,76.37
2023-01-30T11:19:17.643Z,75.85
2023-01-30T11:21:09.001Z,75.88
2023-01-30T11:23:44.201Z,75.49
2023-01-30T11:26:29.491Z,74.46
2023-01-30T11:29:00.322Z,74.60
2023-01-30T11:31:41.228Z,74.14
2023-01-30T11:34:16.190Z,74.36
2023-01-30T11:36:50.156Z,74.70
2023-01-30T11:39:23.426Z,74.49
2023-01-30T11:42:01.861Z,75.20
2023-01-30T11:44:38.219Z,75.03
2023-01-30T11:47:13.443Z,74.96
2023-01-30T11:50:29.062Z,75.81
2023-01-30T11:52:24.906Z,77.07
2023-01-30T11:54:59.391Z,79.92
2023-01-30T11:57:31.716Z,81.40
2023-01-30T12:00:04.367Z,82.73
2023-01-30T12:02:38.589Z,84.29
2023-01-30T12:05:24.544Z,85.50
2023-01-30T12:07:56.626Z,86.76
2023-01-30T12:10:32.630Z,87.54
2023-01-30T12:13:08.247Z,87.55
2023-01-30T12:15:40.602Z,87.26
2023-01-30T12:18:28.746Z,87.08
2023-01-30T12:21:06.485Z,87.09
2023-01-30T12:23:44.695Z,86.66
2023-01-30T12:26:37.261Z,86.69
2023-01-30T12:29:30.146Z,86.40
2023-01-30T12:32:12.602Z,83.39
2023-01-30T12:34:48.253Z,82.57
2023-01-30T12:37:21.824Z,81.50
2023-01-30T12:39:59.931Z,79.49
2023-01-30T12:42:57.377Z,79.36
2023-01-30T12:45:31.058Z,77.72
2023-01-30T12:48:19.624Z,76.09
2023-01-30T12:51:25.371Z,76.05
2023-01-30T12:54:16.014Z,76.07
2023-01-30T12:57:07.397Z,75.14
2023-01-30T12:59:53.446Z,75.80
2023-01-30T13:02:41.566Z,75.54
2023-01-30T13:05:42.339Z,75.77
2023-01-30T13:08:46.915Z,76.03
2023-01-30T13:11:41.855Z,74.51
2023-01-30T13:14:38.111Z,74.73
2023-01-30T13:17:27.605Z,75.15
2023-01-30T13:20:02.793Z,74.04
2023-01-30T13:22:49.308Z,73.17
2023-01-30T13:25:22.859Z,72.56
2023-01-30T13:27:57.928Z,71.77
2023-01-30T13:30:30.677Z,71.33
2023-01-30T13:33:13.356Z,72.08
2023-01-30T13:35:49.739Z,72.54
2023-01-30T13:38:24.525Z,72.43
2023-01-30T13:41:02.104Z,73.32
2023-01-30T13:43:41.818Z,75.86
2023-01-30T13:46:19.292Z,77.62
2023-01-30T13:49:11.371Z,79.00
2023-01-30T13:52:02.627Z,81.11
2023-01-30T13:54:46.585Z,81.54
2023-01-30T13:57:24.745Z,82.81
2023-01-30T14:00:31.803Z,84.39
2023-01-30T14:03:08.360Z,85.69
2023-01-30T14:06:02.442Z,86.68
2023-01-30T14:08:51.372Z,86.76
2023-01-30T14:11:40.267Z,87.36
2023-01-30T14:14:24.810Z,87.34
2023-01-30T14:16:58.686Z,87.65
2023-01-30T14:19:35.194Z,87.62
2023-01-30T14:22:25.405Z,87.54
2023-01-30T14:25:33.753Z,87.93
2023-01-30T14:28:10.370Z,87.65
2023-01-30T14:30:49.574Z,86.63
2023-01-30T14:33:26.179Z,86.38
2023-01-30T14:36:06.979Z,86.34
2023-01-30T14:38:39.812Z,85.95
2023-01-30T14:41:21.088Z,86.10
2023-01-30T14:43:54.862Z,85.74
2023-01-30T14:46:30.517Z,85.50
2023-01-30T14:49:06.873Z,85.68
2023-01-30T14:51:52.253Z,85.80
2023-01-30T14:54:33.284Z,85.56
2023-01-30T14:57:05.501Z,85.97
2023-01-30T15:00:11.470Z,86.11
2023-01-30T15:02:31.374Z,86.37
2023-01-30T15:05:06.779Z,86.30
2023-01-30T15:08:00.104Z,85.79
2023-01-30T15:10:53.711Z,85.72
2023-01-30T15:13:30.101Z,85.36
2023-01-30T15:16:18.985Z,85.11
2023-01-30T15:19:24.401Z,85.80
2023-01-30T15:22:17.167Z,85.62
2023-01-30T15:25:06.978Z,85.92
2023-01-30T15:27:55.753Z,85.42
2023-01-30T15:30:34.802Z,85.36
2023-01-30T15:33:31.474Z,84.91
2023-01-30T15:36:00.271Z,84.94
2023-01-30T15:38:35.994Z,85.23
2023-01-30T15:41:07.708Z,85.06
2023-01-30T15:43:55.430Z,85.21
2023-01-30T15:46:38.275Z,84.84
2023-01-30T15:49:28.296Z,84.52
2023-01-30T15:52:10.790Z,84.56
2023-01-30T15:54:44.538Z,83.69
2023-01-30T15:57:19.813Z,83.04
2023-01-30T15:59:50.493Z,83.40
2023-01-30T16:02:35.613Z,83.56
2023-01-30T16:05:17.453Z,83.99
2023-01-30T16:07:54.612Z,83.54
2023-01-30T16:10:28.147Z,83.73
2023-01-30T16:13:01.197Z,83.83
2023-01-30T16:15:48.763Z,83.48
2023-01-30T16:18:34.402Z,83.17
2023-01-30T16:21:07.952Z,83.84
2023-01-30T16:23:41.494Z,84.68
2023-01-30T16:26:18.130Z,85.77
2023-01-30T16:28:51.675Z,86.57
2023-01-30T16:31:25.458Z,86.37
2023-01-30T16:33:56.331Z,87.11
2023-01-30T16:36:32.311Z,87.54
2023-01-30T16:39:05.890Z,87.83
2023-01-30T16:41:45.607Z,87.63
2023-01-30T16:44:24.837Z,87.75
2023-01-30T16:47:06.892Z,87.73
2023-01-30T16:49:48.833Z,88.10
2023-01-30T16:52:24.044Z,87.96
2023-01-30T16:55:00.978Z,88.14
2023-01-30T16:57:37.341Z,87.86
2023-01-30T17:00:24.495Z,87.36
2023-01-30T17:03:07.007Z,87.17
2023-01-30T17:05:46.614Z,87.23
2023-01-30T17:08:42.925Z,87.20
2023-01-30T17:11:33.238Z,87.34
2023-01-30T17:14:22.146Z,87.34
2023-01-30T17:17:11.008Z,87.39
2023-01-30T17:19:45.978Z,86.84
2023-01-30T17:22:20.350Z,86.93
2023-01-30T17:24:53.531Z,86.92
2023-01-30T17:27:27.620Z,87.05
2023-01-30T17:29:58.934Z,86.58
2023-01-30T17:32:29.742Z,86.68
2023-01-30T17:35:03.456Z,86.59
2023-01-30T17:37:34.069Z,86.73
2023-01-30T17:40:08.042Z,86.77
2023-01-30T17:42:38.880Z,86.63
2023-01-30T17:45:12.007Z,86.49
2023-01-30T17:47:42.592Z,86.02
2023-01-30T17:50:19.971Z,86.02
2023-01-30T17:52:51.591Z,85.67
2023-01-30T17:55:22.638Z,85.53
2023-01-30T17:57:55.293Z,85.05
2023-01-30T18:00:26.114Z,84.86
2023-01-30T18:02:58.284Z,84.70
2023-01-30T18:05:32.710Z,84.58
2023-01-30T18:08:04.787Z,84.32
2023-01-30T18:10:37.526Z,84.05
2023-01-30T18:13:08.044Z,83.24
2023-01-30T18:15:40.162Z,82.48
2023-01-30T18:18:16.145Z,81.97
2023-01-30T18:20:48.902Z,82.30
2023-01-30T18:23:21.933Z,81.51
2023-01-30T18:25:53.484Z,81.09
2023-01-30T18:28:27.169Z,80.37
2023-01-30T18:30:59.896Z,79.91
2023-01-30T18:33:33.256Z,79.88
2023-01-30T18:36:09.033Z,79.84
2023-01-30T18:38:42.443Z,79.60
2023-01-30T18:41:16.470Z,80.08
2023-01-30T18:43:50.583Z,79.98
2023-01-30T18:46:23.484Z,79.91
2023-01-30T18:48:55.352Z,79.45
2023-01-30T18:51:31.553Z,79.12
2023-01-30T18:54:03.377Z,79.55
2023-01-30T18:56:35.492Z,79.31
2023-01-30T18:59:08.469Z,79.38
2023-01-30T19:01:42.769Z,78.21
2023-01-30T19:04:16.403Z,78.68
2023-01-30T19:06:49.395Z,78.26
2023-01-30T19:09:24.365Z,77.48
2023-01-30T19:12:14.027Z,77.48
2023-01-30T19:14:47.263Z,76.98
2023-01-30T19:17:19.227Z,77.32
2023-01-30T19:19:51.532Z,76.28
2023-01-30T19:22:23.663Z,76.96
2023-01-30T19:24:54.178Z,76.95
2023-01-30T19:27:25.931Z,77.01
2023-01-30T19:29:58.682Z,76.95
2023-01-30T19:32:29.458Z,76.11
2023-01-30T19:35:01.666Z,76.33
2023-01-30T19:37:33.559Z,76.11
2023-01-30T19:40:08.747Z,74.88
2023-01-30T19:42:44.420Z,75.59
2023-01-30T19:45:15.004Z,74.93
2023-01-30T19:47:46.892Z,75.10
2023-01-30T19:50:17.825Z,75.02
2023-01-30T19:52:49.682Z,75.49
2023-01-30T19:55:22.053Z,75.64
2023-01-30T19:57:53.151Z,76.38
2023-01-30T20:00:24.900Z,77.08
2023-01-30T20:02:57.872Z,77.08
2023-01-30T20:05:30.972Z,77.62
2023-01-30T20:08:01.612Z,77.58
2023-01-30T20:10:39.714Z,77.70
2023-01-30T20:13:10.405Z,78.01
2023-01-30T20:15:43.741Z,78.18
2023-01-30T20:18:19.302Z,77.88
2023-01-30T20:20:54.402Z,78.03
2023-01-30T20:23:27.783Z,77.88
2023-01-30T20:25:59.405Z,77.55
2023-01-30T20:28:30.244Z,76.84
2023-01-30T20:31:05.035Z,76.78
2023-01-30T20:33:36.458Z,76.73
2023-01-30T20:36:11.486Z,76.19
2023-01-30T20:38:44.543Z,76.03
2023-01-30T20:41:21.427Z,75.30
2023-01-30T20:43:56.703Z,75.34
2023-01-30T20:46:43.897Z,74.99
2023-01-30T20:49:21.362Z,74.79
2023-01-30T20:51:56.081Z,74.50
2023-01-30T20:54:28.315Z,74.11
2023-01-30T20:56:58.913Z,74.16
2023-01-30T20:59:30.036Z,74.23
2023-01-30T21:02:03.317Z,73.99
2023-01-30T21:04:37.637Z,74.44
2023-01-30T21:07:12.457Z,73.91
2023-01-30T21:09:44.020Z,73.21
2023-01-30T21:12:16.321Z,72.60
2023-01-30T21:14:49.585Z,71.71
2023-01-30T21:17:28.650Z,72.08
2023-01-30T21:20:01.615Z,71.78
2023-01-30T21:22:32.737Z,71.93
2023-01-30T21:25:05.059Z,72.44
2023-01-30T21:27:40.805Z,73.05
2023-01-30T21:30:15.383Z,74.03
2023-01-30T21:32:46.435Z,74.52
2023-01-30T21:35:17.265Z,75.08
2023-01-30T21:38:07.021Z,75.49
2023-01-30T21:40:59.353Z,74.97
2023-01-30T21:43:30.031Z,75.20
2023-01-30T21:46:03.147Z,75.22
2023-01-30T21:48:34.863Z,75.81
2023-01-30T21:51:13.708Z,76.09
2023-01-30T21:53:46.198Z,75.82
2023-01-30T21:56:18.574Z,75.95
2023-01-30T21:58:51.795Z,75.92
2023-01-30T22:01:22.832Z,76.23
2023-01-30T22:03:54.068Z,76.44
2023-01-30T22:06:26.996Z,76.85
2023-01-30T22:09:00.214Z,77.05
2023-01-30T22:11:31.501Z,76.80
2023-01-30T22:14:03.885Z,79.77
2023-01-30T22:16:37.519Z,75.88
2023-01-30T22:19:08.590Z,73.28
2023-01-30T22:21:40.875Z,75.09
2023-01-30T22:24:11.689Z,75.82
2023-01-30T22:26:42.167Z,75.85
2023-01-30T22:29:19.182Z,76.28
2023-01-30T22:31:50.140Z,76.57
2023-01-30T22:34:30.580Z,76.24
2023-01-30T22:37:04.019Z,76.68
2023-01-30T22:39:36.035Z,76.94
2023-01-30T22:42:08.885Z,76.65
2023-01-30T22:44:40.617Z,77.19
2023-01-30T22:47:17.686Z,77.19
2023-01-30T22:49:49.265Z,76.73
2023-01-30T22:52:21.388Z,76.77
2023-01-30T22:54:53.797Z,76.81
2023-01-30T22:57:27.544Z,76.76
2023-01-30T23:00:02.865Z,77.02
2023-01-30T23:02:36.929Z,76.96
2023-01-30T23:05:14.546Z,77.03
2023-01-30T23:07:47.054Z,77.05
2023-01-30T23:10:21.382Z,77.20
2023-01-30T23:13:08.952Z,76.91
2023-01-30T23:15:43.909Z,76.75
2023-01-30T23:18:35.571Z,77.07
2023-01-30T23:21:09.154Z,76.66
2023-01-30T23:23:43.129Z,76.78
2023-01-30T23:26:14.693Z,76.70
2023-01-30T23:28:45.314Z,76.58
2023-01-30T23:31:18.989Z,76.25
2023-01-30T23:33:58.114Z,76.11
2023-01-30T23:36:29.293Z,76.34
2023-01-30T23:39:03.330Z,76.38
2023-01-30T23:41:37.617Z,76.46
2023-01-30T23:44:10.920Z,76.31
2023-01-30T23:46:43.890Z,76.35
2023-01-30T23:49:15.946Z,76.48
2023-01-30T23:51:49.131Z,76.63
2023-01-30T23:54:20.275Z,76.70
2023-01-30T23:56:51.233Z,76.78
2023-01-30T23:59:23.057Z,76.89
